Data for 11/18/2009

Time Sea-Level Adjusted Pressure Absolute Pressure Temperature Relative Humidity Dew Point   
(mb) (inHg) (mb) (inHg) (C) (F) (%) (C) (F)
00:05 1012 29.88 841 24.83 5.3 41.5 35 -8.8 16.2
00:10 1012 29.88 841 24.83 5.2 41.4 36 -8.8 16.2
00:15 1012 29.88 841 24.83 5.4 41.7 35 -9 15.8
00:20 1012 29.88 841 24.83 5.1 41.1 38 -8.2 17.3
00:25 1012 29.88 841 24.83 4.8 40.6 37 -8.6 16.6
00:30 1012 29.88 841 24.83 4.6 40.2 39 -8.1 17.3
00:35 1012 29.88 841 24.83 4.1 39.4 41 -8.1 17.5
00:40 1012 29.88 841 24.83 3.7 38.7 42 -8.2 17.3
00:45 1012 29.88 841 24.83 3.9 39 40 -8.4 16.9
00:50 1012 29.88 841 24.83 3.8 38.8 41 -8.2 17.3
00:55 1012 29.88 841 24.83 3.4 38.1 42 -8.2 17.2
01:00 1012 29.88 841 24.83 3.4 38.2 43 -7.9 17.8
01:05 1012 29.88 841 24.83 3.2 37.8 43 -8.1 17.4
01:10 1012 29.88 841 24.83 2.9 37.2 45 -7.9 17.7
01:15 1012 29.88 841 24.83 2.6 36.7 45 -8.1 17.4
01:20 1012 29.88 841 24.83 2.5 36.4 46 -7.9 17.7
01:25 1012 29.88 841 24.83 2.3 36.2 47 -7.9 17.8
01:30 1012 29.88 841 24.83 2.3 36.1 48 -7.7 18.2
01:35 1012 29.88 841 24.83 2.4 36.4 47 -7.7 18.1
01:40 1012 29.88 841 24.83 2.3 36.2 47 -7.9 17.7
01:45 1012 29.88 841 24.83 2.5 36.5 45 -8.2 17.2
01:50 1012 29.88 841 24.83 2.9 37.1 44 -8.3 17.1
01:55 1012 29.88 841 24.83 2.8 37.1 45 -8.1 17.4
02:00 1012 29.88 841 24.83 2.5 36.5 45 -8.2 17.3
02:05 1012 29.88 841 24.83 2.5 36.5 45 -8.2 17.2
02:10 1012 29.88 841 24.83 2.6 36.7 45 -8.3 17.1
02:15 1012 29.88 841 24.83 2.7 36.9 44 -8.4 17
02:20 1011 29.85 841 24.83 3 37.4 41 -8.9 16.1
02:25 1011 29.85 841 24.83 3.4 38.1 41 -8.8 16.2
02:30 1011 29.85 841 24.83 3.4 38.1 40 -8.8 16.1
02:35 1011 29.85 841 24.83 3.8 38.8 39 -8.9 16
02:40 1011 29.85 841 24.83 3.9 39.1 38 -9.2 15.5
02:45 1011 29.85 841 24.83 4.3 39.8 37 -9 15.8
02:50 1011 29.85 841 24.83 4.7 40.4 37 -8.8 16.2
02:55 1011 29.85 841 24.83 4.5 40.2 37 -9 15.7
03:00 1011 29.85 841 24.83 4.8 40.6 37 -8.7 16.3
03:05 1011 29.85 840 24.81 4.5 40.2 37 -9.1 15.6
03:10 1011 29.85 840 24.81 4.6 40.3 37 -8.7 16.3
03:15 1011 29.85 840 24.81 4.5 40.1 36 -9.2 15.4
03:20 1011 29.85 840 24.81 5.1 41.2 34 -9.4 15.1
03:25 1011 29.85 840 24.81 5 40.9 35 -9.3 15.2
03:30 1011 29.85 840 24.81 5.2 41.4 34 -9.4 15.1
03:35 1011 29.85 840 24.81 5.4 41.7 35 -9 15.8
03:40 1011 29.85 840 24.81 5.1 41.2 35 -9.2 15.4
03:45 1011 29.85 840 24.81 5.2 41.4 35 -9.2 15.4
03:50 1011 29.85 840 24.81 4.9 40.9 36 -8.9 15.9
03:55 1011 29.85 840 24.81 4.7 40.5 35 -9.5 15
04:00 1011 29.85 840 24.81 4.8 40.7 35 -9.5 14.9
04:05 1011 29.85 840 24.81 4.8 40.7 35 -9.4 15
04:10 1011 29.85 840 24.81 4.9 40.8 35 -9.4 15
04:15 1011 29.85 840 24.81 4.9 40.8 36 -9.1 15.6
04:20 1011 29.85 840 24.81 4.6 40.4 37 -9 15.8
04:25 1011 29.85 840 24.81 4.6 40.2 36 -9.2 15.4
04:30 1011 29.85 840 24.81 4.7 40.4 36 -9.2 15.4
04:35 1011 29.85 840 24.81 4.6 40.3 36 -9.1 15.7
04:40 1011 29.85 840 24.81 4.4 40 36 -9.3 15.2
04:45 1011 29.85 840 24.81 4.6 40.4 36 -9.3 15.2
04:50 1011 29.85 840 24.81 4.6 40.2 37 -8.8 16.1
04:55 1011 29.85 840 24.81 4.3 39.8 38 -8.9 15.9
05:00 1011 29.85 840 24.81 4.4 40 36 -9.3 15.2
05:05 1011 29.85 840 24.81 4.4 40 38 -8.8 16.2
05:10 1011 29.85 840 24.81 4.2 39.6 37 -9.1 15.6
05:15 1011 29.85 840 24.81 4 39.1 38 -9.2 15.5
05:20 1011 29.85 840 24.81 4 39.1 37 -9.4 15.1
05:25 1011 29.85 840 24.81 4.1 39.4 37 -9.2 15.4
05:30 1011 29.85 840 24.81 4.1 39.5 37 -9.4 15
05:35 1011 29.85 840 24.81 4.3 39.7 36 -9.5 14.9
05:40 1011 29.85 840 24.81 4.2 39.6 36 -9.6 14.8
05:45 1011 29.85 840 24.81 4.2 39.5 37 -9.3 15.3
05:50 1011 29.85 840 24.81 3.9 39 38 -9.1 15.6
05:55 1011 29.85 840 24.81 3.7 38.7 38 -9.3 15.3
06:00 1011 29.85 840 24.81 3.5 38.3 37 -9.8 14.3
06:05 1011 29.85 840 24.81 4 39.3 36 -9.8 14.4
06:10 1011 29.85 840 24.81 4.2 39.6 36 -9.7 14.6
06:15 1011 29.85 840 24.81 4.4 39.9 34 -10 14
06:20 1011 29.85 840 24.81 4.5 40.1 36 -9.5 15
06:25 1011 29.85 840 24.81 4.5 40 35 -9.6 14.7
06:30 1011 29.85 840 24.81 4.6 40.2 35 -9.6 14.6
06:35 1011 29.85 840 24.81 4.6 40.3 35 -9.7 14.5
06:40 1011 29.85 840 24.81 4.5 40.2 36 -9.4 15.1
06:45 1011 29.85 840 24.81 4.7 40.4 34 -9.9 14.1
06:50 1011 29.85 840 24.81 4.7 40.5 35 -9.6 14.7
06:55 1011 29.85 840 24.81 4.6 40.2 35 -9.7 14.6
07:00 1011 29.85 840 24.81 4.3 39.8 36 -9.6 14.7
07:05 1011 29.85 840 24.81 4 39.3 37 -9.3 15.3
07:10 1011 29.85 841 24.83 3.8 38.8 38 -9.3 15.2
07:15 1011 29.85 841 24.83 4.2 39.6 35 -10.1 13.9
07:20 1011 29.85 841 24.83 4.6 40.4 35 -9.4 15.1
07:25 1011 29.85 841 24.83 4.1 39.4 37 -9.5 15
07:30 1012 29.88 841 24.83 4 39.3 36 -9.6 14.7
07:35 1012 29.88 841 24.83 3.9 39 38 -9.3 15.3
07:40 1012 29.88 841 24.83 3.7 38.7 37 -9.6 14.8
07:45 1012 29.88 841 24.83 3.8 38.9 37 -9.7 14.6
07:50 1012 29.88 841 24.83 3.6 38.6 38 -9.3 15.3
07:55 1012 29.88 841 24.83 3.7 38.6 38 -9.3 15.3
08:00 1012 29.88 841 24.83 3.8 38.8 42 -7.9 17.8
08:05 1012 29.88 842 24.86 2.6 36.7 47 -7.7 18.1
08:10 1013 29.91 842 24.86 1.6 34.9 49 -7.9 17.7
08:15 1013 29.91 842 24.86 1.5 34.6 49 -8.1 17.4
08:20 1013 29.91 842 24.86 1.7 35.1 50 -7.5 18.5
08:25 1013 29.91 842 24.86 1.8 35.2 50 -7.5 18.5
08:30 1013 29.91 842 24.86 1.6 35 50 -7.8 18
08:35 1013 29.91 842 24.86 1.9 35.4 49 -7.6 18.3
08:40 1013 29.91 842 24.86 2.6 36.6 47 -7.6 18.3
08:45 1013 29.91 842 24.86 2.5 36.6 47 -7.6 18.3
08:50 1013 29.91 842 24.86 2.2 35.9 50 -7.2 19.1
08:55 1013 29.91 843 24.89 1.7 35 51 -7.4 18.6
09:00 1013 29.91 843 24.89 1.6 34.9 48 -8.2 17.2
09:05 1013 29.91 843 24.89 2.4 36.3 47 -7.9 17.8
09:10 1013 29.91 843 24.89 3.4 38 43 -8.1 17.5
09:15 1013 29.91 843 24.89 4 39.2 40 -8.4 16.9
09:20 1013 29.91 843 24.89 5 41 37 -8.5 16.7
09:25 1013 29.91 843 24.89 5.3 41.6 38 -7.9 17.8
09:30 1013 29.91 843 24.89 5.4 41.8 39 -7.6 18.3
09:35 1013 29.91 843 24.89 5 41 39 -7.9 17.9
09:40 1013 29.91 843 24.89 5.4 41.7 37 -8.3 17
09:45 1013 29.91 843 24.89 5.6 42.1 38 -7.8 18
09:50 1014 29.94 843 24.89 6.5 43.6 35 -7.8 17.9
09:55 1014 29.94 843 24.89 7.2 45 35 -7.4 18.6
10:00 1014 29.94 843 24.89 7.6 45.7 32 -8.2 17.2
10:05 1014 29.94 843 24.89 7.6 45.7 33 -7.7 18.2
10:10 1014 29.94 843 24.89 7 44.6 37 -6.8 19.7
10:15 1014 29.94 843 24.89 7 44.6 37 -6.6 20.2
10:20 1014 29.94 843 24.89 6.6 43.9 38 -6.8 19.7
10:25 1014 29.94 843 24.89 7.2 45 36 -6.9 19.5
10:30 1014 29.94 843 24.89 7.4 45.2 34 -7.5 18.5
10:35 1014 29.94 843 24.89 7.4 45.4 34 -7.5 18.6
10:40 1014 29.94 843 24.89 7.1 44.8 36 -7 19.4
10:45 1014 29.94 843 24.89 7.8 46 33 -7.3 18.8
10:50 1014 29.94 843 24.89 8.1 46.6 34 -7 19.4
10:55 1014 29.94 843 24.89 7.2 45 39 -5.9 21.4
11:00 1014 29.94 843 24.89 7.4 45.4 36 -6.5 20.3
11:05 1014 29.94 843 24.89 8.7 47.7 33 -6.5 20.3
11:10 1014 29.94 843 24.89 8.6 47.4 34 -6.3 20.6
11:15 1014 29.94 844 24.92 8.1 46.5 36 -6.1 21
11:20 1014 29.94 843 24.89 7.6 45.6 40 -5.2 22.6
11:25 1014 29.94 843 24.89 6.9 44.5 40 -5.8 21.5
11:30 1014 29.94 843 24.89 6.5 43.8 40 -6 21.2
11:35 1014 29.94 843 24.89 6.3 43.3 40 -6.3 20.6
11:40 1014 29.94 844 24.92 6.5 43.7 41 -5.9 21.4
11:45 1014 29.94 844 24.92 6.5 43.7 39 -6.4 20.5
11:50 1014 29.94 844 24.92 6.3 43.4 40 -6.4 20.5
11:55 1014 29.94 844 24.92 6.4 43.5 40 -6.3 20.7
12:00 1015 29.97 844 24.92 6.3 43.3 41 -6.1 21.1
12:05 1014 29.94 844 24.92 5.7 42.2 43 -6.1 21.1
12:10 1015 29.97 844 24.92 5.5 41.8 42 -6.3 20.6
12:15 1015 29.97 844 24.92 5.5 41.8 43 -6 21.1
12:20 1015 29.97 844 24.92 5.7 42.3 43 -5.9 21.4
12:25 1015 29.97 844 24.92 6.3 43.3 41 -6.1 21
12:30 1015 29.97 844 24.92 6.2 43.2 41 -6.2 20.8
12:35 1015 29.97 844 24.92 6.4 43.5 40 -6.1 21
12:40 1015 29.97 844 24.92 6.9 44.5 40 -5.7 21.7
12:45 1015 29.97 844 24.92 6.8 44.2 42 -5.3 22.4
12:50 1015 29.97 844 24.92 6.5 43.7 43 -5.1 22.8
12:55 1015 29.97 844 24.92 6.1 43 47 -4.3 24.3
13:00 1015 29.97 844 24.92 5.9 42.6 50 -3.7 25.3
13:05 1015 29.97 844 24.92 5.3 41.6 52 -3.7 25.4
13:10 1015 29.97 845 24.95 4.9 40.8 53 -3.8 25.1
13:15 1015 29.97 845 24.95 4.7 40.4 55 -3.6 25.5
13:20 1015 29.97 845 24.95 4.7 40.5 55 -3.6 25.6
13:25 1015 29.97 845 24.95 4.9 40.9 53 -3.7 25.3
13:30 1015 29.97 845 24.95 4.9 40.8 54 -3.5 25.7
13:35 1015 29.97 845 24.95 4.5 40 58 -3.1 26.4
13:40 1015 29.97 845 24.95 4.1 39.4 59 -3.2 26.2
13:45 1016 30 845 24.95 4.4 39.9 58 -3 26.5
13:50 1016 30 845 24.95 4 39.3 61 -2.8 26.9
13:55 1016 30 845 24.95 3.8 38.8 63 -2.7 27.1
14:00 1016 30 845 24.95 3.6 38.5 63 -2.8 27
14:05 1016 30 845 24.95 3.9 39 65 -2.2 28
14:10 1016 30 845 24.95 3.5 38.3 65 -2.5 27.4
14:15 1016 30 845 24.95 3.6 38.4 64 -2.7 27.2
14:20 1016 30 845 24.95 3.9 39 64 -2.3 27.8
14:25 1016 30 845 24.95 3.8 38.8 64 -2.4 27.7
14:30 1016 30 845 24.95 3.8 38.8 64 -2.4 27.6
14:35 1016 30 845 24.95 3.6 38.6 66 -2.2 28.1
14:40 1016 30 845 24.95 3.6 38.4 66 -2.2 28.1
14:45 1016 30 845 24.95 3.6 38.4 67 -1.9 28.5
14:50 1016 30 845 24.95 3.4 38.2 67 -2.1 28.2
14:55 1016 30 845 24.95 3.5 38.3 66 -2.2 28.1
15:00 1016 30 845 24.95 3.3 37.9 67 -2.3 27.8
15:05 1016 30 846 24.98 3 37.5 68 -2.3 27.8
15:10 1016 30 846 24.98 2.8 37.1 69 -2.3 27.8
15:15 1016 30 846 24.98 2.7 36.9 69 -2.5 27.5
15:20 1017 30.03 846 24.98 2.6 36.7 69 -2.5 27.5
15:25 1017 30.03 846 24.98 2.6 36.8 69 -2.5 27.5
15:30 1017 30.03 846 24.98 2.7 36.8 68 -2.7 27.2
15:35 1017 30.03 846 24.98 2.7 36.9 67 -2.7 27.1
15:40 1017 30.03 846 24.98 2.5 36.5 68 -2.7 27.1
15:45 1017 30.03 846 24.98 2.4 36.3 67 -3 26.5
15:50 1017 30.03 846 24.98 2.5 36.5 66 -3.2 26.2
15:55 1017 30.03 846 24.98 2.4 36.3 68 -3 26.6
16:00 1017 30.03 846 24.98 2.1 35.9 69 -3 26.5
16:05 1017 30.03 847 25.01 2.2 36 67 -3.2 26.2
16:10 1017 30.03 847 25.01 2.2 36 68 -3 26.6
16:15 1018 30.06 847 25.01 2.2 35.9 66 -3.5 25.6
16:20 1018 30.06 847 25.01 2.2 36 65 -3.6 25.6
16:25 1018 30.06 847 25.01 2.2 36 66 -3.4 25.8
16:30 1018 30.06 847 25.01 2.3 36.1 66 -3.4 25.8
16:35 1018 30.06 847 25.01 2.3 36.1 67 -3.3 26.1
16:40 1018 30.06 847 25.01 2.2 36 65 -3.6 25.5
16:45 1018 30.06 847 25.01 2 35.5 66 -3.7 25.3
16:50 1018 30.06 847 25.01 1.7 35.1 66 -3.9 25.1
16:55 1018 30.06 847 25.01 1.6 34.8 66 -4.2 24.5
17:00 1018 30.06 847 25.01 1.6 34.8 64 -4.4 24
17:05 1018 30.06 847 25.01 1.6 34.8 64 -4.4 24
17:10 1018 30.06 847 25.01 1.6 34.9 63 -4.6 23.7
17:15 1018 30.06 847 25.01 1.6 34.8 63 -4.8 23.4
17:20 1018 30.06 848 25.04 1.6 34.8 64 -4.5 23.8
17:25 1018 30.06 848 25.04 1.5 34.7 67 -4.1 24.7
17:30 1019 30.09 848 25.04 1.4 34.6 66 -4.2 24.4
17:35 1019 30.09 848 25.04 1.3 34.4 65 -4.4 24
17:40 1019 30.09 848 25.04 1.4 34.4 66 -4.3 24.3
17:45 1019 30.09 848 25.04 1.3 34.3 67 -4.2 24.5
17:50 1019 30.09 848 25.04 1.3 34.3 65 -4.6 23.7
17:55 1019 30.09 848 25.04 1.3 34.4 65 -4.5 24
18:00 1019 30.09 848 25.04 1.4 34.4 65 -4.4 24.1
18:05 1019 30.09 848 25.04 1.4 34.5 65 -4.6 23.8
18:10 1019 30.09 848 25.04 1.3 34.3 64 -4.7 23.6
18:15 1019 30.09 848 25.04 1.3 34.3 64 -4.8 23.4
18:20 1019 30.09 849 25.07 1.3 34.3 63 -4.9 23.2
18:25 1019 30.09 849 25.07 1.2 34.2 66 -4.5 24
18:30 1019 30.09 849 25.07 1.2 34.1 65 -4.7 23.6
18:35 1020 30.12 849 25.07 1.2 34.2 64 -4.8 23.4
18:40 1020 30.12 849 25.07 1 33.8 66 -4.6 23.8
18:45 1020 30.12 849 25.07 1 33.7 65 -4.9 23.1
18:50 1020 30.12 849 25.07 1.1 34 65 -4.8 23.3
18:55 1020 30.12 849 25.07 1.2 34.2 64 -4.7 23.5
19:00 1020 30.12 849 25.07 1.2 34.2 63 -5 23.1
19:05 1020 30.12 849 25.07 1.2 34.2 63 -5 23.1
19:10 1020 30.12 849 25.07 1.2 34.2 65 -4.6 23.7
19:15 1020 30.12 849 25.07 1 33.8 65 -4.9 23.2
19:20 1020 30.12 849 25.07 0.9 33.6 66 -4.8 23.3
19:25 1020 30.12 849 25.07 0.7 33.3 66 -4.9 23.2
19:30 1020 30.12 849 25.07 1 33.7 64 -5.1 22.7
19:35 1020 30.12 849 25.07 1.1 34 64 -4.9 23.2
19:40 1020 30.12 849 25.07 1.1 34.1 63 -5.1 22.8
19:45 1020 30.12 849 25.07 1.2 34.1 63 -5.1 22.8
19:50 1020 30.12 849 25.07 1.3 34.3 63 -5.1 22.8
19:55 1020 30.12 849 25.07 1.2 34.1 64 -4.9 23.1
20:00 1020 30.12 849 25.07 1.1 33.9 63 -5.3 22.5
20:05 1020 30.12 849 25.07 1 33.8 64 -5.1 22.7
20:10 1020 30.12 849 25.07 0.8 33.4 63 -5.4 22.3
20:15 1020 30.12 849 25.07 0.5 33 64 -5.6 22
20:20 1020 30.12 849 25.07 0.3 32.5 63 -5.9 21.4
20:25 1020 30.12 849 25.07 -0.1 31.8 66 -5.7 21.7
20:30 1020 30.12 849 25.07 -0.3 31.5 65 -6 21.2
20:35 1020 30.12 849 25.07 -0.2 31.6 66 -5.9 21.4
20:40 1020 30.12 849 25.07 -0.3 31.4 66 -6 21.3
20:45 1020 30.12 849 25.07 -0.3 31.5 66 -5.8 21.6
20:50 1020 30.12 849 25.07 -0.3 31.5 65 -6.1 21
20:55 1020 30.12 849 25.07 -0.3 31.5 66 -5.9 21.5
21:00 1020 30.12 849 25.07 -0.4 31.3 66 -5.9 21.3
21:05 1020 30.12 849 25.07 -0.6 30.9 67 -6 21.2
21:10 1020 30.12 849 25.07 -0.6 31 69 -5.6 21.9
21:15 1020 30.12 849 25.07 -0.6 31 68 -5.8 21.6
21:20 1020 30.12 849 25.07 -0.7 30.7 70 -5.5 22.1
21:25 1020 30.12 850 25.1 -1.1 30 72 -5.5 22
21:30 1020 30.12 850 25.1 -1.5 29.3 74 -5.5 22.1
21:35 1020 30.12 850 25.1 -1.7 29 75 -5.5 22
21:40 1020 30.12 850 25.1 -1.8 28.7 76 -5.5 22.1
21:45 1020 30.12 849 25.07 -2.3 27.9 78 -5.6 21.9
21:50 1020 30.12 850 25.1 -2.5 27.4 78 -5.8 21.6
21:55 1020 30.12 850 25.1 -2.9 26.8 80 -5.8 21.5
22:00 1020 30.12 850 25.1 -2.6 27.3 78 -5.9 21.4
22:05 1020 30.12 849 25.07 -1.9 28.6 74 -5.9 21.5
22:10 1020 30.12 849 25.07 -1.7 28.9 74 -5.7 21.7
22:15 1020 30.12 850 25.1 -2 28.4 75 -5.8 21.6
22:20 1020 30.12 850 25.1 -2.2 28 77 -5.8 21.6
22:25 1020 30.12 850 25.1 -2.5 27.5 77 -5.9 21.3
22:30 1020 30.12 849 25.07 -2.3 27.8 77 -5.8 21.6
22:35 1020 30.12 849 25.07 -2.3 27.9 77 -5.7 21.7
22:40 1020 30.12 849 25.07 -2.2 28.1 76 -5.8 21.6
22:45 1020 30.12 849 25.07 -2.3 27.8 77 -5.8 21.5
22:50 1020 30.12 849 25.07 -2.3 27.9 76 -5.9 21.4
22:55 1020 30.12 849 25.07 -2.3 27.9 77 -5.9 21.4
23:00 1020 30.12 849 25.07 -2.2 28.1 76 -5.8 21.6
23:05 1020 30.12 849 25.07 -2.2 28 76 -5.8 21.5
23:10 1020 30.12 849 25.07 -2.3 27.8 77 -5.9 21.5
23:15 1020 30.12 850 25.1 -2.4 27.7 77 -5.9 21.4
23:20 1020 30.12 850 25.1 -2.2 28 76 -5.9 21.5
23:25 1020 30.12 850 25.1 -2.2 28 76 -5.8 21.5
23:30 1020 30.12 850 25.1 -2.2 28 76 -5.8 21.5
23:35 1020 30.12 850 25.1 -2.2 28 76 -5.9 21.4
23:40 1020 30.12 850 25.1 -2.3 27.9 77 -5.8 21.5
23:45 1020 30.12 850 25.1 -2.6 27.3 78 -5.9 21.4
23:50 1020 30.12 850 25.1 -2.7 27.2 77 -6.1 21
23:55 1021 30.15 850 25.1 -2.5 27.5 77 -6 21.2
24:00 1020 30.12 850 25.1 -2.5 27.4 77 -6 21.3